Sea Rider — WDI2682 — position and weather

sailwx.info

Track history (hours):
 
Tides and Currents Weather Stations Pressure Air Temp Water Temp Dewpoint Dewpoint Depression Visibility Wind Speed Wind Dir Waves Ship Positions

Sea Rider

Owner: Versaggi Shrimp Corp, Tampa, FL. More information available from US FCC via Universal Licensing System and Coast Guard Vessel Documentation Center.

Last reported at 2018-Jan-11 20:42 UTC. Time now 2018-Jan-24 11:29 UTC.
Position N 25°02' W 081°58'.
Warning: this ship's position is 12 days out of date.

MMSI: 367680650.

Date/timePositionNaut miles runAvg speedWind from/ knotsBaromVisibWave heightAir tempDewpointWater temp
2018-Jan-11 20:42N 25°02' W 081°58'0 0.0
2018-Jan-11 20:30N 25°02' W 081°58'0 0.0
2018-Jan-11 20:00N 25°02' W 081°58'0 0.0
2018-Jan-11 19:24N 25°02' W 081°58'0 0.0
2018-Jan-11 19:00N 25°02' W 081°58'0 0.0
2018-Jan-11 18:30N 25°02' W 081°58'166 3.9
2018-Jan-10 00:11N 27°46' W 082°31'2 8.2
2018-Jan-10 00:00N 27°47' W 082°29'6 8.0
2018-Jan-09 23:17N 27°52' W 082°27'2 6.9
2018-Jan-09 23:00N 27°54' W 082°26'2 4.0
2018-Jan-09 22:30N 27°56' W 082°26'0 0.1
2018-Jan-09 22:00N 27°56' W 082°26'0 0.0
2018-Jan-09 21:30N 27°56' W 082°26'0 0.0
2018-Jan-09 21:00N 27°56' W 082°26'0 0.0
2018-Jan-09 20:30N 27°56' W 082°26'0 0.0
2018-Jan-09 20:00N 27°56' W 082°26'0 0.0
2018-Jan-09 19:30N 27°56' W 082°26'0 0.0
2018-Jan-09 19:00N 27°56' W 082°26'0 0.0
2018-Jan-09 18:30N 27°56' W 082°26'0 0.0
2018-Jan-09 18:00N 27°56' W 082°26'0 0.0
2018-Jan-09 17:30N 27°56' W 082°26'0 0.0
2018-Jan-09 17:00N 27°56' W 082°26'0 0.0
2018-Jan-09 16:30N 27°56' W 082°26'0 0.0
2018-Jan-09 16:00N 27°56' W 082°26'0 0.0
2018-Jan-09 15:30N 27°56' W 082°26'0 0.0
2018-Jan-09 15:00N 27°56' W 082°26'0 0.0
2018-Jan-09 14:30N 27°56' W 082°26'0 0.0
2018-Jan-08 19:22N 27°56' W 082°26'0 0.7
2018-Jan-08 19:00N 27°55' W 082°26'4 7.8
2018-Jan-08 18:30N 27°52' W 082°27'4 8.2
2018-Jan-08 18:00N 27°48' W 082°28'4 8.3
2018-Jan-08 17:30N 27°45' W 082°32'  
2018-Jan-05 15:44N 27°46' W 082°31'2 8.4
2018-Jan-05 15:27N 27°47' W 082°30'6 7.4
2018-Jan-05 14:41N 27°52' W 082°26'1 7.7
2018-Jan-05 14:30N 27°54' W 082°26'2 4.5
2018-Jan-05 14:00N 27°56' W 082°26'0 0.0
2018-Jan-05 13:30N 27°56' W 082°26'0 0.0
2018-Jan-05 13:01N 27°56' W 082°26'0 0.0
2018-Jan-05 12:30N 27°56' W 082°26'0 0.0
2018-Jan-05 12:01N 27°56' W 082°26'0 0.0
2018-Jan-05 11:30N 27°56' W 082°26'0 0.0
2018-Jan-05 11:01N 27°56' W 082°26'0 0.0
2018-Jan-05 10:30N 27°56' W 082°26'0 0.0
2018-Jan-05 10:00N 27°56' W 082°26'0 0.0
2018-Jan-05 09:31N 27°56' W 082°26'0 0.0
2018-Jan-05 09:00N 27°56' W 082°26'0 0.0
2018-Jan-05 08:30N 27°56' W 082°26'0 0.0
2018-Jan-05 08:01N 27°56' W 082°26'0 0.0
2018-Jan-05 07:30N 27°56' W 082°26'0 0.0
2018-Jan-05 07:00N 27°56' W 082°26'0 0.0
2018-Jan-05 06:30N 27°56' W 082°26'0 0.0
2018-Jan-05 06:00N 27°56' W 082°26'0 0.0
2018-Jan-05 05:30N 27°56' W 082°26'0 0.0
2018-Jan-05 05:00N 27°56' W 082°26'0 0.0
2018-Jan-05 04:31N 27°56' W 082°26'0 0.0
2018-Jan-05 04:00N 27°56' W 082°26'0 0.0
2018-Jan-05 03:30N 27°56' W 082°26'0 0.0
2018-Jan-05 03:01N 27°56' W 082°26'0 0.0
2018-Jan-05 02:30N 27°56' W 082°26'0 0.0
2018-Jan-05 02:01N 27°56' W 082°26'0 0.0
2018-Jan-05 01:30N 27°56' W 082°26'0 0.0
2018-Jan-05 01:01N 27°56' W 082°26'0 0.0
2018-Jan-05 00:31N 27°56' W 082°26'0 0.0
2018-Jan-05 00:01N 27°56' W 082°26'0 0.0
2018-Jan-04 23:30N 27°56' W 082°26'0 0.0
2018-Jan-04 23:00N 27°56' W 082°26'0 0.0
2018-Jan-04 22:31N 27°56' W 082°26'0 0.0
2018-Jan-04 22:01N 27°56' W 082°26'0 0.0
2018-Jan-04 21:30N 27°56' W 082°26'0 0.0
2018-Jan-04 21:00N 27°56' W 082°26'0 0.0
2018-Jan-04 20:31N 27°56' W 082°26'0 0.0
2018-Jan-04 20:01N 27°56' W 082°26'0 0.0
2018-Jan-04 19:30N 27°56' W 082°26'0 0.0
2018-Jan-04 19:01N 27°56' W 082°26'0 0.0
2018-Jan-04 18:30N 27°56' W 082°26'0 0.0
2018-Jan-04 18:00N 27°56' W 082°26'0 0.0
2018-Jan-04 17:31N 27°56' W 082°26'0 0.0
2018-Jan-04 17:00N 27°56' W 082°26'0 0.0
2018-Jan-04 16:30N 27°56' W 082°26'  
Track history (hours):
 
Tides and Currents Weather Stations Pressure Air Temp Water Temp Dewpoint Dewpoint Depression Visibility Wind Speed Wind Dir Waves Ship Positions

Sea Rider

Owner: Versaggi Shrimp Corp, Tampa, FL. More information available from US FCC via Universal Licensing System and Coast Guard Vessel Documentation Center.

Last reported at 2018-Jan-11 20:42 UTC. Time now 2018-Jan-24 11:29 UTC.
Position N 25°02' W 081°58'.
Warning: this ship's position is 12 days out of date.

MMSI: 367680650.

Date/timePositionNaut miles runAvg speedWind from/ knotsBaromVisibWave heightAir tempDewpointWater temp
2018-Jan-11 20:42N 25°02' W 081°58'0 0.0
2018-Jan-11 20:30N 25°02' W 081°58'0 0.0
2018-Jan-11 20:00N 25°02' W 081°58'0 0.0
2018-Jan-11 19:24N 25°02' W 081°58'0 0.0
2018-Jan-11 19:00N 25°02' W 081°58'0 0.0
2018-Jan-11 18:30N 25°02' W 081°58'166 3.9
2018-Jan-10 00:11N 27°46' W 082°31'2 8.2
2018-Jan-10 00:00N 27°47' W 082°29'6 8.0
2018-Jan-09 23:17N 27°52' W 082°27'2 6.9
2018-Jan-09 23:00N 27°54' W 082°26'2 4.0
2018-Jan-09 22:30N 27°56' W 082°26'0 0.1
2018-Jan-09 22:00N 27°56' W 082°26'0 0.0
2018-Jan-09 21:30N 27°56' W 082°26'0 0.0
2018-Jan-09 21:00N 27°56' W 082°26'0 0.0
2018-Jan-09 20:30N 27°56' W 082°26'0 0.0
2018-Jan-09 20:00N 27°56' W 082°26'0 0.0
2018-Jan-09 19:30N 27°56' W 082°26'0 0.0
2018-Jan-09 19:00N 27°56' W 082°26'0 0.0
2018-Jan-09 18:30N 27°56' W 082°26'0 0.0
2018-Jan-09 18:00N 27°56' W 082°26'0 0.0
2018-Jan-09 17:30N 27°56' W 082°26'0 0.0
2018-Jan-09 17:00N 27°56' W 082°26'0 0.0
2018-Jan-09 16:30N 27°56' W 082°26'0 0.0
2018-Jan-09 16:00N 27°56' W 082°26'0 0.0
2018-Jan-09 15:30N 27°56' W 082°26'0 0.0
2018-Jan-09 15:00N 27°56' W 082°26'0 0.0
2018-Jan-09 14:30N 27°56' W 082°26'0 0.0
2018-Jan-08 19:22N 27°56' W 082°26'0 0.7
2018-Jan-08 19:00N 27°55' W 082°26'4 7.8
2018-Jan-08 18:30N 27°52' W 082°27'4 8.2
2018-Jan-08 18:00N 27°48' W 082°28'4 8.3
2018-Jan-08 17:30N 27°45' W 082°32'  
2018-Jan-05 15:44N 27°46' W 082°31'2 8.4
2018-Jan-05 15:27N 27°47' W 082°30'6 7.4
2018-Jan-05 14:41N 27°52' W 082°26'1 7.7
2018-Jan-05 14:30N 27°54' W 082°26'2 4.5
2018-Jan-05 14:00N 27°56' W 082°26'0 0.0
2018-Jan-05 13:30N 27°56' W 082°26'0 0.0
2018-Jan-05 13:01N 27°56' W 082°26'0 0.0
2018-Jan-05 12:30N 27°56' W 082°26'0 0.0
2018-Jan-05 12:01N 27°56' W 082°26'0 0.0
2018-Jan-05 11:30N 27°56' W 082°26'0 0.0
2018-Jan-05 11:01N 27°56' W 082°26'0 0.0
2018-Jan-05 10:30N 27°56' W 082°26'0 0.0
2018-Jan-05 10:00N 27°56' W 082°26'0 0.0
2018-Jan-05 09:31N 27°56' W 082°26'0 0.0
2018-Jan-05 09:00N 27°56' W 082°26'0 0.0
2018-Jan-05 08:30N 27°56' W 082°26'0 0.0
2018-Jan-05 08:01N 27°56' W 082°26'0 0.0
2018-Jan-05 07:30N 27°56' W 082°26'0 0.0
2018-Jan-05 07:00N 27°56' W 082°26'0 0.0
2018-Jan-05 06:30N 27°56' W 082°26'0 0.0
2018-Jan-05 06:00N 27°56' W 082°26'0 0.0
2018-Jan-05 05:30N 27°56' W 082°26'0 0.0
2018-Jan-05 05:00N 27°56' W 082°26'0 0.0
2018-Jan-05 04:31N 27°56' W 082°26'0 0.0
2018-Jan-05 04:00N 27°56' W 082°26'0 0.0
2018-Jan-05 03:30N 27°56' W 082°26'0 0.0
2018-Jan-05 03:01N 27°56' W 082°26'0 0.0
2018-Jan-05 02:30N 27°56' W 082°26'0 0.0
2018-Jan-05 02:01N 27°56' W 082°26'0 0.0
2018-Jan-05 01:30N 27°56' W 082°26'0 0.0
2018-Jan-05 01:01N 27°56' W 082°26'0 0.0
2018-Jan-05 00:31N 27°56' W 082°26'0 0.0
2018-Jan-05 00:01N 27°56' W 082°26'0 0.0
2018-Jan-04 23:30N 27°56' W 082°26'0 0.0
2018-Jan-04 23:00N 27°56' W 082°26'0 0.0
2018-Jan-04 22:31N 27°56' W 082°26'0 0.0
2018-Jan-04 22:01N 27°56' W 082°26'0 0.0
2018-Jan-04 21:30N 27°56' W 082°26'0 0.0
2018-Jan-04 21:00N 27°56' W 082°26'0 0.0
2018-Jan-04 20:31N 27°56' W 082°26'0 0.0
2018-Jan-04 20:01N 27°56' W 082°26'0 0.0
2018-Jan-04 19:30N 27°56' W 082°26'0 0.0
2018-Jan-04 19:01N 27°56' W 082°26'0 0.0
2018-Jan-04 18:30N 27°56' W 082°26'0 0.0
2018-Jan-04 18:00N 27°56' W 082°26'0 0.0
2018-Jan-04 17:31N 27°56' W 082°26'0 0.0
2018-Jan-04 17:00N 27°56' W 082°26'0 0.0
2018-Jan-04 16:30N 27°56' W 082°26'  

Dump ship's entire track history